createdAt,value
2023-01-08T00:00:15.475Z,21.58
2023-01-08T00:02:45.865Z,15.63
2023-01-08T00:05:14.872Z,18.55
2023-01-08T00:07:44.120Z,17.58
2023-01-08T00:10:13.150Z,7.50
2023-01-08T00:12:42.139Z,17.02
2023-01-08T00:15:11.408Z,11.80
2023-01-08T00:17:40.536Z,10.10
2023-01-08T00:20:11.564Z,14.40
2023-01-08T00:22:40.665Z,16.57
2023-01-08T00:25:10.229Z,13.98
2023-01-08T00:27:39.229Z,9.52
2023-01-08T00:30:08.740Z,21.73
2023-01-08T00:32:38.068Z,12.13
2023-01-08T00:35:07.559Z,11.52
2023-01-08T00:37:38.094Z,13.38
2023-01-08T00:40:07.850Z,19.65
2023-01-08T00:42:36.932Z,18.92
2023-01-08T00:45:06.508Z,17.50
2023-01-08T00:47:35.740Z,13.27
2023-01-08T00:50:05.178Z,17.65
2023-01-08T00:52:34.464Z,16.40
2023-01-08T00:55:05.020Z,19.63
2023-01-08T00:57:34.773Z,13.10
2023-01-08T01:00:04.384Z,19.05
2023-01-08T01:02:33.601Z,19.08
2023-01-08T01:05:02.848Z,17.90
2023-01-08T01:07:31.799Z,12.40
2023-01-08T01:10:00.950Z,15.63
2023-01-08T01:12:31.400Z,15.60
2023-01-08T01:15:00.602Z,18.35
2023-01-08T01:17:30.357Z,16.77
2023-01-08T01:19:59.442Z,20.67
2023-01-08T01:22:28.632Z,9.32
2023-01-08T01:24:57.898Z,14.82
2023-01-08T01:27:27.488Z,11.57
2023-01-08T01:29:57.962Z,16.05
2023-01-08T01:32:27.193Z,18.13
2023-01-08T01:34:56.837Z,16.70
2023-01-08T01:37:25.940Z,13.98
2023-01-08T01:39:56.249Z,12.63
2023-01-08T01:42:40.753Z,18.13
2023-01-08T01:45:21.240Z,23.77
2023-01-08T01:47:53.508Z,16.15
2023-01-08T01:50:24.644Z,13.18
2023-01-08T01:52:57.239Z,13.10
2023-01-08T01:55:27.677Z,18.17
2023-01-08T01:58:00.227Z,14.48
2023-01-08T02:00:31.223Z,16.42
2023-01-08T02:03:00.405Z,10.70
2023-01-08T02:05:32.508Z,22.27
2023-01-08T02:10:32.595Z,21.02
2023-01-08T02:13:06.608Z,27.00
2023-01-08T02:15:40.484Z,14.85
2023-01-08T02:18:10.950Z,16.00
2023-01-08T02:20:41.603Z,15.98
2023-01-08T02:23:15.277Z,20.40
2023-01-08T02:26:06.567Z,15.10
2023-01-08T02:28:38.339Z,18.50
2023-01-08T02:31:07.861Z,15.45
2023-01-08T02:33:37.618Z,25.60
2023-01-08T02:36:17.530Z,24.25
2023-01-08T02:38:51.036Z,15.20
2023-01-08T02:41:24.047Z,11.45
2023-01-08T02:43:55.313Z,18.63
2023-01-08T02:46:27.749Z,11.60
2023-01-08T02:49:00.022Z,14.98
2023-01-08T02:51:30.698Z,12.98
2023-01-08T02:54:01.497Z,16.10
2023-01-08T02:56:32.919Z,16.40
2023-01-08T02:59:02.909Z,10.85
2023-01-08T03:01:32.226Z,12.10
2023-01-08T03:04:03.859Z,19.10
2023-01-08T03:06:33.180Z,16.27
2023-01-08T03:09:02.330Z,9.80
2023-01-08T03:11:34.765Z,13.43
2023-01-08T03:14:06.160Z,11.93
2023-01-08T03:16:37.093Z,15.27
2023-01-08T03:19:09.602Z,11.38
2023-01-08T03:21:39.856Z,11.73
2023-01-08T03:24:10.459Z,11.93
2023-01-08T03:26:42.007Z,7.78
2023-01-08T03:29:13.323Z,6.97
2023-01-08T03:31:42.800Z,9.95
2023-01-08T03:34:13.220Z,7.82
2023-01-08T03:36:43.114Z,11.32
2023-01-08T03:39:18.618Z,9.30
2023-01-08T03:41:49.986Z,7.90
2023-01-08T03:44:19.118Z,9.43
2023-01-08T03:46:50.915Z,11.45
2023-01-08T03:49:20.945Z,17.45
2023-01-08T03:51:50.374Z,13.75
2023-01-08T03:54:20.497Z,13.98
2023-01-08T03:56:50.870Z,19.10
2023-01-08T03:59:19.823Z,19.02
2023-01-08T04:01:48.918Z,12.57
2023-01-08T04:04:18.314Z,12.70
2023-01-08T04:06:47.385Z,14.38
2023-01-08T04:09:16.386Z,6.50
2023-01-08T04:11:45.400Z,16.10
2023-01-08T04:14:16.271Z,8.80
2023-01-08T04:16:45.415Z,13.85
2023-01-08T04:19:14.468Z,9.43
2023-01-08T04:21:43.494Z,8.98
2023-01-08T04:24:12.890Z,10.27
2023-01-08T04:26:41.916Z,9.52
2023-01-08T04:29:10.915Z,16.25
2023-01-08T04:31:41.436Z,10.18
2023-01-08T04:34:11.349Z,21.23
2023-01-08T04:36:40.556Z,17.38
2023-01-08T04:39:10.014Z,16.25
2023-01-08T04:41:39.002Z,12.95
2023-01-08T04:44:08.184Z,21.58
2023-01-08T04:46:37.827Z,9.90
2023-01-08T04:49:08.536Z,20.55
2023-01-08T04:51:37.529Z,12.65
2023-01-08T04:54:06.534Z,17.08
2023-01-08T04:56:35.513Z,13.23
2023-01-08T04:59:04.592Z,18.17
2023-01-08T05:01:33.786Z,14.35
2023-01-08T05:04:03.649Z,14.98
2023-01-08T05:06:34.504Z,10.25
2023-01-08T05:09:03.559Z,10.27
2023-01-08T05:11:32.586Z,7.25
2023-01-08T05:14:01.611Z,11.75
2023-01-08T05:16:30.598Z,11.10
2023-01-08T05:18:59.623Z,11.00
2023-01-08T05:21:28.707Z,9.27
2023-01-08T05:23:59.287Z,8.35
2023-01-08T05:26:28.346Z,5.13
2023-01-08T05:28:57.311Z,9.15
2023-01-08T05:31:27.029Z,8.00
2023-01-08T05:33:56.015Z,5.40
2023-01-08T05:36:25.210Z,4.85
2023-01-08T05:38:54.283Z,3.25
2023-01-08T05:41:24.673Z,1.88
2023-01-08T05:43:53.966Z,2.38
2023-01-08T05:46:23.265Z,7.75
2023-01-08T05:48:52.264Z,6.28
2023-01-08T05:51:21.272Z,7.22
2023-01-08T05:53:50.379Z,9.75
2023-01-08T05:56:19.447Z,6.32
2023-01-08T05:58:49.807Z,5.80
2023-01-08T06:01:19.184Z,11.85
2023-01-08T06:03:48.338Z,5.80
2023-01-08T06:06:18.442Z,6.20
2023-01-08T06:08:47.485Z,3.95
2023-01-08T06:11:16.484Z,3.30
2023-01-08T06:13:45.761Z,9.07
2023-01-08T06:16:17.560Z,2.60
2023-01-08T06:18:46.702Z,5.65
2023-01-08T06:21:15.832Z,4.68
2023-01-08T06:23:44.854Z,2.92
2023-01-08T06:26:13.778Z,6.90
2023-01-08T06:28:42.887Z,6.68
2023-01-08T06:31:12.047Z,9.00
2023-01-08T06:33:42.604Z,5.22
2023-01-08T06:36:11.896Z,4.43
2023-01-08T06:38:41.071Z,8.18
2023-01-08T06:41:11.571Z,6.13
2023-01-08T06:43:41.001Z,5.10
2023-01-08T06:46:11.215Z,7.00
2023-01-08T06:48:41.879Z,8.35
2023-01-08T06:51:10.937Z,7.35
2023-01-08T06:53:40.068Z,4.68
2023-01-08T06:56:10.962Z,11.98
2023-01-08T06:58:40.458Z,16.98
2023-01-08T07:01:13.814Z,6.75
2023-01-08T07:03:45.409Z,13.65
2023-01-08T07:06:16.638Z,6.38
2023-01-08T07:08:46.048Z,8.20
2023-01-08T07:11:15.162Z,8.02
2023-01-08T07:13:44.307Z,9.52
2023-01-08T07:16:14.336Z,8.20
2023-01-08T07:18:44.919Z,8.23
2023-01-08T07:21:14.034Z,9.77
2023-01-08T07:23:43.038Z,6.15
2023-01-08T07:26:12.265Z,13.70
2023-01-08T07:28:41.476Z,12.02
2023-01-08T07:31:10.837Z,8.43
2023-01-08T07:33:40.049Z,6.97
2023-01-08T07:36:11.250Z,14.82
2023-01-08T07:38:40.291Z,9.45
2023-01-08T07:41:09.477Z,4.20
2023-01-08T07:43:38.624Z,8.27
2023-01-08T07:46:07.655Z,14.50
2023-01-08T07:48:36.793Z,10.80
2023-01-08T07:51:06.833Z,7.30
2023-01-08T07:53:38.349Z,8.85
2023-01-08T07:56:08.750Z,6.95
2023-01-08T07:58:38.315Z,5.18
2023-01-08T08:01:09.987Z,8.88
2023-01-08T08:03:39.959Z,11.95
2023-01-08T08:06:09.179Z,5.53
2023-01-08T08:08:41.986Z,8.75
2023-01-08T08:11:11.193Z,8.18
2023-01-08T08:13:42.711Z,5.43
2023-01-08T08:16:12.522Z,6.75
2023-01-08T08:18:41.804Z,9.32
2023-01-08T08:21:10.865Z,4.63
2023-01-08T08:23:41.404Z,7.32
2023-01-08T08:26:11.592Z,8.73
2023-01-08T08:28:40.792Z,3.83
2023-01-08T08:31:09.957Z,5.43
2023-01-08T08:33:39.051Z,10.52
2023-01-08T08:36:08.729Z,8.50
2023-01-08T08:38:38.763Z,10.35
2023-01-08T08:41:09.230Z,7.07
2023-01-08T08:43:38.347Z,4.13
2023-01-08T08:46:07.556Z,8.95
2023-01-08T08:48:36.642Z,7.90
2023-01-08T08:51:06.001Z,12.18
2023-01-08T08:53:35.358Z,6.10
2023-01-08T08:56:04.673Z,7.30
2023-01-08T08:58:35.390Z,6.68
2023-01-08T09:01:05.066Z,12.25
2023-01-08T09:03:34.533Z,5.97
2023-01-08T09:06:03.673Z,9.70
2023-01-08T09:08:35.122Z,5.18
2023-01-08T09:11:04.631Z,6.00
2023-01-08T09:13:35.145Z,13.13
2023-01-08T09:16:04.245Z,9.57
2023-01-08T09:18:33.353Z,7.70
2023-01-08T09:21:06.998Z,7.65
2023-01-08T09:23:36.140Z,8.98
2023-01-08T09:26:06.216Z,6.22
2023-01-08T09:28:36.560Z,8.82
2023-01-08T09:31:05.822Z,8.38
2023-01-08T09:33:34.847Z,12.35
2023-01-08T09:36:06.568Z,15.25
2023-01-08T09:38:35.589Z,20.55
2023-01-08T09:41:06.291Z,11.95
2023-01-08T09:43:38.242Z,16.15
2023-01-08T09:48:37.800Z,16.55
2023-01-08T09:51:08.758Z,9.02
2023-01-08T09:53:37.798Z,12.52
2023-01-08T09:56:12.365Z,9.63
2023-01-08T09:58:45.208Z,17.27
2023-01-08T10:01:15.828Z,11.30
2023-01-08T10:03:45.960Z,14.45
2023-01-08T10:06:16.434Z,17.48
2023-01-08T10:11:21.992Z,13.50
2023-01-08T10:13:54.799Z,7.97
2023-01-08T10:16:27.589Z,6.05
2023-01-08T10:18:56.688Z,10.07
2023-01-08T10:21:29.721Z,11.48
2023-01-08T10:23:58.791Z,14.82
2023-01-08T10:26:29.536Z,7.95
2023-01-08T10:29:13.944Z,11.15
2023-01-08T10:31:47.903Z,12.43
2023-01-08T10:34:26.152Z,13.88
2023-01-08T10:36:55.770Z,15.60
2023-01-08T10:39:25.689Z,9.85
2023-01-08T10:41:55.224Z,9.23
2023-01-08T10:44:27.447Z,9.75
2023-01-08T10:47:00.283Z,12.02
2023-01-08T10:49:32.439Z,16.65
2023-01-08T10:54:32.894Z,12.13
2023-01-08T10:57:02.717Z,9.88
2023-01-08T10:59:33.451Z,11.88
2023-01-08T11:02:02.751Z,13.73
2023-01-08T11:04:33.611Z,11.20
2023-01-08T11:07:03.462Z,9.20
2023-01-08T11:09:33.476Z,18.02
2023-01-08T11:12:02.789Z,12.23
2023-01-08T11:14:35.116Z,12.82
2023-01-08T11:17:10.795Z,13.45
2023-01-08T11:19:40.302Z,14.73
2023-01-08T11:22:19.968Z,12.40
2023-01-08T11:24:49.511Z,12.77
2023-01-08T11:27:20.463Z,8.07
2023-01-08T11:29:52.840Z,8.95
2023-01-08T11:32:33.734Z,19.25
2023-01-08T11:35:04.443Z,11.70
2023-01-08T11:37:38.185Z,13.23
2023-01-08T11:40:13.494Z,10.80
2023-01-08T11:42:49.505Z,19.45
2023-01-08T11:45:22.711Z,7.65
2023-01-08T11:48:13.134Z,9.10
2023-01-08T11:50:48.054Z,8.50
2023-01-08T11:53:21.071Z,8.20
2023-01-08T11:55:58.524Z,8.30
2023-01-08T11:58:35.737Z,10.20
2023-01-08T12:01:13.512Z,12.25
2023-01-08T12:03:44.143Z,10.98
2023-01-08T12:06:18.035Z,11.10
2023-01-08T12:08:53.064Z,7.57
2023-01-08T12:11:25.886Z,11.15
2023-01-08T12:14:06.002Z,12.40
2023-01-08T12:16:47.313Z,7.78
2023-01-08T12:19:19.489Z,13.25
2023-01-08T12:21:54.924Z,12.38
2023-01-08T12:24:29.461Z,13.68
2023-01-08T12:27:00.311Z,9.45
2023-01-08T12:29:41.441Z,10.30
2023-01-08T12:32:19.150Z,10.15
2023-01-08T12:34:52.580Z,7.50
2023-01-08T12:37:25.496Z,11.20
2023-01-08T12:40:01.156Z,9.23
2023-01-08T12:42:31.661Z,11.95
2023-01-08T12:45:02.460Z,11.52
2023-01-08T12:47:35.786Z,14.27
2023-01-08T12:50:09.940Z,15.70
2023-01-08T12:52:42.371Z,6.82
2023-01-08T12:55:18.661Z,10.40
2023-01-08T12:57:52.597Z,10.00
2023-01-08T13:00:27.699Z,13.02
2023-01-08T13:02:59.872Z,11.30
2023-01-08T13:05:33.341Z,8.38
2023-01-08T13:08:04.601Z,12.00
2023-01-08T13:10:38.889Z,15.20
2023-01-08T13:13:08.703Z,10.52
2023-01-08T13:15:38.028Z,9.82
2023-01-08T13:18:10.409Z,7.07
2023-01-08T13:20:39.401Z,11.50
2023-01-08T13:23:08.796Z,12.00
2023-01-08T13:25:38.577Z,8.82
2023-01-08T13:28:19.883Z,12.30
2023-01-08T13:30:49.921Z,12.87
2023-01-08T13:33:41.889Z,8.98
2023-01-08T13:36:22.154Z,13.27
2023-01-08T13:39:02.072Z,10.90
2023-01-08T13:41:32.154Z,10.98
2023-01-08T13:44:06.176Z,12.63
2023-01-08T13:46:37.909Z,13.77
2023-01-08T13:49:10.547Z,10.80
2023-01-08T13:51:43.783Z,8.93
2023-01-08T13:54:30.918Z,8.23
2023-01-08T13:57:05.024Z,6.22
2023-01-08T13:59:42.277Z,4.82
2023-01-08T14:02:26.702Z,5.88
2023-01-08T14:04:57.587Z,7.10
2023-01-08T14:07:30.714Z,6.03
2023-01-08T14:10:08.575Z,4.53
2023-01-08T14:12:37.674Z,5.35
2023-01-08T14:15:19.310Z,1.40
2023-01-08T14:17:48.847Z,7.03
2023-01-08T14:20:24.694Z,3.63
2023-01-08T14:22:53.736Z,5.35
2023-01-08T14:25:23.076Z,3.83
2023-01-08T14:28:03.195Z,5.10
2023-01-08T14:30:32.428Z,3.10
2023-01-08T14:33:02.716Z,2.83
2023-01-08T14:35:35.469Z,8.07
2023-01-08T14:38:05.799Z,3.28
2023-01-08T14:40:37.818Z,7.53
2023-01-08T14:45:36.064Z,6.35
2023-01-08T14:48:11.267Z,3.45
2023-01-08T14:50:42.950Z,3.35
2023-01-08T14:53:17.234Z,1.40
2023-01-08T14:55:49.201Z,2.45
2023-01-08T15:00:50.482Z,2.55
2023-01-08T15:03:30.127Z,1.65
2023-01-08T15:06:00.850Z,2.05
2023-01-08T15:08:34.653Z,4.47
2023-01-08T15:11:05.168Z,4.18
2023-01-08T15:13:35.281Z,1.60
2023-01-08T15:16:08.661Z,1.02
2023-01-08T15:18:45.288Z,2.67
2023-01-08T15:21:20.222Z,3.50
2023-01-08T15:23:50.829Z,2.00
2023-01-08T15:26:20.649Z,4.03
2023-01-08T15:28:54.324Z,1.48
2023-01-08T15:31:27.318Z,4.22
2023-01-08T15:33:56.919Z,4.18
2023-01-08T15:36:27.878Z,5.93
2023-01-08T15:38:56.924Z,3.53
2023-01-08T15:41:43.992Z,3.75
2023-01-08T15:44:13.613Z,2.55
2023-01-08T15:46:42.746Z,6.60
2023-01-08T15:49:11.982Z,3.55
2023-01-08T15:51:44.494Z,4.15
2023-01-08T15:54:14.389Z,3.92
2023-01-08T15:56:43.863Z,5.75
2023-01-08T15:59:14.613Z,4.25
2023-01-08T16:01:43.733Z,2.72
2023-01-08T16:04:15.565Z,3.25
2023-01-08T16:06:46.342Z,1.83
2023-01-08T16:09:15.570Z,3.97
2023-01-08T16:11:44.712Z,3.90
2023-01-08T16:14:14.239Z,2.60
2023-01-08T16:16:43.309Z,4.90
2023-01-08T16:19:14.647Z,3.65
2023-01-08T16:21:46.978Z,5.72
2023-01-08T16:24:17.732Z,3.47
2023-01-08T16:26:46.865Z,3.80
2023-01-08T16:29:15.846Z,3.30
2023-01-08T16:31:46.616Z,3.28
2023-01-08T16:34:15.828Z,7.20
2023-01-08T16:36:45.253Z,2.25
2023-01-08T16:39:14.609Z,2.72
2023-01-08T16:41:45.149Z,4.80
2023-01-08T16:44:19.945Z,2.28
2023-01-08T16:46:51.585Z,3.75
2023-01-08T16:49:20.788Z,3.92
2023-01-08T16:51:50.013Z,5.55
2023-01-08T16:54:19.407Z,2.83
2023-01-08T16:56:50.118Z,5.75
2023-01-08T16:59:23.797Z,1.42
2023-01-08T17:01:53.337Z,6.45
2023-01-08T17:04:22.693Z,6.07
2023-01-08T17:06:52.000Z,3.53
2023-01-08T17:09:21.367Z,12.10
2023-01-08T17:11:51.821Z,3.00
2023-01-08T17:14:21.071Z,12.35
2023-01-08T17:16:50.319Z,2.70
2023-01-08T17:19:19.410Z,5.60
2023-01-08T17:21:48.635Z,5.03
2023-01-08T17:24:17.835Z,6.95
2023-01-08T17:26:46.948Z,8.23
2023-01-08T17:29:17.722Z,6.45
2023-01-08T17:31:46.806Z,5.70
2023-01-08T17:34:16.100Z,3.63
2023-01-08T17:36:45.429Z,5.38
2023-01-08T17:39:14.699Z,1.48
2023-01-08T17:42:01.374Z,5.07
2023-01-08T17:44:32.133Z,2.10
2023-01-08T17:47:01.214Z,4.22
2023-01-08T17:49:30.997Z,3.88
2023-01-08T17:52:00.104Z,2.88
2023-01-08T17:54:29.194Z,4.35
2023-01-08T17:56:58.215Z,3.25
2023-01-08T17:59:27.785Z,2.35
2023-01-08T18:01:58.900Z,5.10
2023-01-08T18:04:28.259Z,5.15
2023-01-08T18:06:57.304Z,1.27
2023-01-08T18:09:26.866Z,2.95
2023-01-08T18:11:56.192Z,2.25
2023-01-08T18:14:25.910Z,1.17
2023-01-08T18:16:55.582Z,2.47
2023-01-08T18:19:26.224Z,1.40
2023-01-08T18:21:55.552Z,2.78
2023-01-08T18:24:24.846Z,5.35
2023-01-08T18:26:54.047Z,4.53
2023-01-08T18:29:23.344Z,2.25
2023-01-08T18:31:52.994Z,3.83
2023-01-08T18:34:22.451Z,3.45
2023-01-08T18:36:52.947Z,3.67
2023-01-08T18:39:22.606Z,3.67
2023-01-08T18:42:09.179Z,3.65
2023-01-08T18:44:38.562Z,7.35
2023-01-08T18:47:07.860Z,3.40
2023-01-08T18:49:37.203Z,1.45
2023-01-08T18:52:08.607Z,6.30
2023-01-08T18:54:37.687Z,3.92
2023-01-08T18:57:06.801Z,4.40
2023-01-08T18:59:36.086Z,2.67
2023-01-08T19:02:05.256Z,5.07
2023-01-08T19:04:34.557Z,1.92
2023-01-08T19:07:04.208Z,6.63
2023-01-08T19:09:34.677Z,1.27
2023-01-08T19:12:03.731Z,1.25
2023-01-08T19:14:33.137Z,4.93
2023-01-08T19:17:02.258Z,2.83
2023-01-08T19:19:31.758Z,2.33
2023-01-08T19:22:00.898Z,1.55
2023-01-08T19:24:30.442Z,5.88
2023-01-08T19:27:00.735Z,5.90
2023-01-08T19:29:29.875Z,9.88
2023-01-08T19:31:59.243Z,7.93
2023-01-08T19:34:28.410Z,6.72
2023-01-08T19:36:57.925Z,4.05
2023-01-08T19:39:29.834Z,3.70
2023-01-08T19:44:46.921Z,5.97
2023-01-08T19:47:16.355Z,3.65
2023-01-08T19:49:47.749Z,7.10
2023-01-08T19:52:17.092Z,3.03
2023-01-08T19:54:46.932Z,4.60
2023-01-08T19:57:16.250Z,3.22
2023-01-08T19:59:47.423Z,6.07
2023-01-08T20:02:16.603Z,6.07
2023-01-08T20:04:45.743Z,5.40
2023-01-08T20:07:15.900Z,4.10
2023-01-08T20:09:45.512Z,7.97
2023-01-08T20:12:15.831Z,5.63
2023-01-08T20:14:45.085Z,9.48
2023-01-08T20:17:18.415Z,10.77
2023-01-08T20:19:50.030Z,4.25
2023-01-08T20:22:19.619Z,8.40
2023-01-08T20:24:48.691Z,7.70
2023-01-08T20:27:17.834Z,7.30
2023-01-08T20:29:47.058Z,9.75
2023-01-08T20:32:18.958Z,8.52
2023-01-08T20:34:48.384Z,12.52
2023-01-08T20:37:17.500Z,11.70
2023-01-08T20:39:47.009Z,7.53
2023-01-08T20:42:21.951Z,12.23
2023-01-08T20:44:57.340Z,8.05
2023-01-08T20:47:27.860Z,5.75
2023-01-08T20:49:57.000Z,8.38
2023-01-08T20:52:26.102Z,7.28
2023-01-08T20:54:55.151Z,8.30
2023-01-08T20:57:24.073Z,11.52
2023-01-08T20:59:53.133Z,8.88
2023-01-08T21:02:22.271Z,13.95
2023-01-08T21:04:54.992Z,11.55
2023-01-08T21:07:24.230Z,11.20
2023-01-08T21:09:54.943Z,8.48
2023-01-08T21:12:24.810Z,9.70
2023-01-08T21:14:54.185Z,11.05
2023-01-08T21:17:26.279Z,11.70
2023-01-08T21:19:57.514Z,9.95
2023-01-08T21:22:26.655Z,9.43
2023-01-08T21:24:55.818Z,7.88
2023-01-08T21:27:25.198Z,10.50
2023-01-08T21:29:54.744Z,7.72
2023-01-08T21:32:28.553Z,11.88
2023-01-08T21:34:59.347Z,9.88
2023-01-08T21:37:30.368Z,5.97
2023-01-08T21:39:59.722Z,9.10
2023-01-08T21:42:46.773Z,17.70
2023-01-08T21:45:29.816Z,14.70
2023-01-08T21:47:59.573Z,10.90
2023-01-08T21:50:30.217Z,6.53
2023-01-08T21:53:17.032Z,15.35
2023-01-08T21:55:46.486Z,13.90
2023-01-08T21:58:15.866Z,8.55
2023-01-08T22:00:45.034Z,9.07
2023-01-08T22:03:14.527Z,6.50
2023-01-08T22:05:45.009Z,9.68
2023-01-08T22:08:18.561Z,8.63
2023-01-08T22:10:47.902Z,9.55
2023-01-08T22:13:17.216Z,11.23
2023-01-08T22:15:46.763Z,11.32
2023-01-08T22:18:16.039Z,4.40
2023-01-08T22:20:46.724Z,8.52
2023-01-08T22:23:16.323Z,8.52
2023-01-08T22:25:45.689Z,11.32
2023-01-08T22:28:14.938Z,13.13
2023-01-08T22:30:44.467Z,11.13
2023-01-08T22:33:13.758Z,8.88
2023-01-08T22:35:43.362Z,5.50
2023-01-08T22:38:14.219Z,10.40
2023-01-08T22:40:43.516Z,7.20
2023-01-08T22:43:13.003Z,6.88
2023-01-08T22:45:42.306Z,15.57
2023-01-08T22:48:13.146Z,4.80
2023-01-08T22:50:42.504Z,6.65
2023-01-08T22:53:11.988Z,4.85
2023-01-08T22:55:43.773Z,6.15
2023-01-08T22:58:13.300Z,12.07
2023-01-08T23:00:43.251Z,10.48
2023-01-08T23:03:13.254Z,4.82
2023-01-08T23:05:43.064Z,17.20
2023-01-08T23:08:12.766Z,5.85
2023-01-08T23:10:43.567Z,7.15
2023-01-08T23:13:12.783Z,3.28
2023-01-08T23:15:45.341Z,10.02
2023-01-08T23:18:14.810Z,5.57
2023-01-08T23:20:43.977Z,5.75
2023-01-08T23:23:13.233Z,8.98
2023-01-08T23:25:43.895Z,6.32
2023-01-08T23:28:13.464Z,4.88
2023-01-08T23:30:43.047Z,8.45
2023-01-08T23:33:12.204Z,8.93
2023-01-08T23:35:42.631Z,7.65
2023-01-08T23:38:11.960Z,5.15
2023-01-08T23:40:45.460Z,8.77
2023-01-08T23:43:14.510Z,3.42
2023-01-08T23:45:43.710Z,7.18
2023-01-08T23:48:12.798Z,8.52
2023-01-08T23:50:41.879Z,5.53
2023-01-08T23:53:10.935Z,11.35
2023-01-08T23:55:40.151Z,5.85
2023-01-08T23:58:10.826Z,9.82
